sensor_id;sensor_type;location;lat;lon;timestamp;pressure;altitude;pressure_sealevel;temperature;humidity
28911;BME280;16028;42.642;23.310;2023-03-14T00:00:58;94200.00;;;3.53;66.46
28911;BME280;16028;42.642;23.310;2023-03-14T00:03:24;94195.91;;;3.51;65.60
28911;BME280;16028;42.642;23.310;2023-03-14T00:05:51;94197.72;;;3.49;65.74
28911;BME280;16028;42.642;23.310;2023-03-14T00:08:19;94191.94;;;3.45;66.62
28911;BME280;16028;42.642;23.310;2023-03-14T00:10:46;94192.16;;;3.42;66.50
28911;BME280;16028;42.642;23.310;2023-03-14T00:13:13;94185.38;;;3.41;66.67
28911;BME280;16028;42.642;23.310;2023-03-14T00:15:42;94183.72;;;3.40;66.92
28911;BME280;16028;42.642;23.310;2023-03-14T00:18:08;94173.25;;;3.43;66.61
28911;BME280;16028;42.642;23.310;2023-03-14T00:20:35;94165.03;;;3.38;66.61
28911;BME280;16028;42.642;23.310;2023-03-14T00:23:01;94170.34;;;3.35;66.67
28911;BME280;16028;42.642;23.310;2023-03-14T00:25:29;94161.28;;;3.30;66.86
28911;BME280;16028;42.642;23.310;2023-03-14T00:27:55;94159.66;;;3.29;67.17
28911;BME280;16028;42.642;23.310;2023-03-14T00:30:22;94156.69;;;3.22;67.05
28911;BME280;16028;42.642;23.310;2023-03-14T00:32:49;94147.59;;;3.16;67.97
28911;BME280;16028;42.642;23.310;2023-03-14T00:35:15;94146.25;;;3.11;68.04
28911;BME280;16028;42.642;23.310;2023-03-14T00:37:42;94141.94;;;3.11;68.10
28911;BME280;16028;42.642;23.310;2023-03-14T00:40:09;94144.53;;;3.11;68.32
28911;BME280;16028;42.642;23.310;2023-03-14T00:42:37;94139.47;;;3.10;68.40
28911;BME280;16028;42.642;23.310;2023-03-14T00:45:04;94140.91;;;3.14;68.61
28911;BME280;16028;42.642;23.310;2023-03-14T00:47:32;94132.38;;;3.13;68.21
28911;BME280;16028;42.642;23.310;2023-03-14T00:49:59;94141.03;;;3.12;69.73
28911;BME280;16028;42.642;23.310;2023-03-14T00:52:25;94144.38;;;3.00;70.51
28911;BME280;16028;42.642;23.310;2023-03-14T00:54:52;94144.59;;;2.97;70.24
28911;BME280;16028;42.642;23.310;2023-03-14T00:57:18;94143.59;;;3.00;69.60
28911;BME280;16028;42.642;23.310;2023-03-14T00:59:46;94133.31;;;3.00;70.92
28911;BME280;16028;42.642;23.310;2023-03-14T01:02:12;94133.78;;;2.92;71.13
28911;BME280;16028;42.642;23.310;2023-03-14T01:04:39;94127.75;;;2.93;70.58
28911;BME280;16028;42.642;23.310;2023-03-14T01:07:08;94130.91;;;2.97;70.50
28911;BME280;16028;42.642;23.310;2023-03-14T01:09:34;94127.63;;;2.95;71.33
28911;BME280;16028;42.642;23.310;2023-03-14T01:12:01;94131.03;;;2.95;71.21
28911;BME280;16028;42.642;23.310;2023-03-14T01:14:27;94116.53;;;2.94;71.69
28911;BME280;16028;42.642;23.310;2023-03-14T01:16:55;94125.97;;;2.94;71.55
28911;BME280;16028;42.642;23.310;2023-03-14T01:19:25;94114.91;;;2.93;71.54
28911;BME280;16028;42.642;23.310;2023-03-14T01:21:52;94108.81;;;2.94;71.73
28911;BME280;16028;42.642;23.310;2023-03-14T01:24:18;94098.53;;;2.94;71.48
28911;BME280;16028;42.642;23.310;2023-03-14T01:26:45;94107.28;;;2.92;72.56
28911;BME280;16028;42.642;23.310;2023-03-14T01:29:12;94109.13;;;2.90;71.64
28911;BME280;16028;42.642;23.310;2023-03-14T01:31:38;94099.84;;;2.87;71.86
28911;BME280;16028;42.642;23.310;2023-03-14T01:34:06;94097.81;;;2.80;70.97
28911;BME280;16028;42.642;23.310;2023-03-14T01:36:32;94100.38;;;2.80;71.77
28911;BME280;16028;42.642;23.310;2023-03-14T01:38:59;94099.53;;;2.79;70.83
28911;BME280;16028;42.642;23.310;2023-03-14T01:41:25;94095.03;;;2.83;71.05
28911;BME280;16028;42.642;23.310;2023-03-14T01:43:52;94089.78;;;2.84;70.75
28911;BME280;16028;42.642;23.310;2023-03-14T01:46:23;94093.19;;;2.85;70.87
28911;BME280;16028;42.642;23.310;2023-03-14T01:48:52;94088.44;;;2.79;71.30
28911;BME280;16028;42.642;23.310;2023-03-14T01:51:23;94085.56;;;2.71;72.63
28911;BME280;16028;42.642;23.310;2023-03-14T01:53:51;94088.78;;;2.74;71.77
28911;BME280;16028;42.642;23.310;2023-03-14T01:56:20;94086.97;;;2.62;73.08
28911;BME280;16028;42.642;23.310;2023-03-14T01:58:48;94086.38;;;2.58;72.39
28911;BME280;16028;42.642;23.310;2023-03-14T02:01:15;94086.66;;;2.54;73.02
28911;BME280;16028;42.642;23.310;2023-03-14T02:03:44;94076.38;;;2.54;72.19
28911;BME280;16028;42.642;23.310;2023-03-14T02:06:13;94078.84;;;2.55;71.51
28911;BME280;16028;42.642;23.310;2023-03-14T02:08:43;94083.81;;;2.58;71.91
28911;BME280;16028;42.642;23.310;2023-03-14T02:11:13;94086.16;;;2.61;71.79
28911;BME280;16028;42.642;23.310;2023-03-14T02:13:40;94080.19;;;2.61;71.83
28911;BME280;16028;42.642;23.310;2023-03-14T02:16:06;94072.91;;;2.55;73.08
28911;BME280;16028;42.642;23.310;2023-03-14T02:18:33;94078.94;;;2.54;72.82
28911;BME280;16028;42.642;23.310;2023-03-14T02:21:00;94070.13;;;2.58;72.31
28911;BME280;16028;42.642;23.310;2023-03-14T02:23:31;94063.16;;;2.60;71.53
28911;BME280;16028;42.642;23.310;2023-03-14T02:26:02;94065.72;;;2.60;71.60
28911;BME280;16028;42.642;23.310;2023-03-14T02:28:32;94064.06;;;2.59;71.61
28911;BME280;16028;42.642;23.310;2023-03-14T02:30:59;94073.81;;;2.54;71.36
28911;BME280;16028;42.642;23.310;2023-03-14T02:33:25;94067.13;;;2.51;71.40
28911;BME280;16028;42.642;23.310;2023-03-14T02:35:53;94066.19;;;2.52;70.81
28911;BME280;16028;42.642;23.310;2023-03-14T02:38:22;94059.00;;;2.45;71.14
28911;BME280;16028;42.642;23.310;2023-03-14T02:40:51;94070.38;;;2.41;70.75
28911;BME280;16028;42.642;23.310;2023-03-14T02:43:17;94078.19;;;2.39;70.84
28911;BME280;16028;42.642;23.310;2023-03-14T02:45:46;94081.25;;;2.32;71.52
28911;BME280;16028;42.642;23.310;2023-03-14T02:48:14;94078.75;;;2.30;72.16
28911;BME280;16028;42.642;23.310;2023-03-14T02:50:42;94080.41;;;2.31;72.09
28911;BME280;16028;42.642;23.310;2023-03-14T02:53:09;94073.53;;;2.32;72.94
28911;BME280;16028;42.642;23.310;2023-03-14T02:55:38;94078.75;;;2.30;73.42
28911;BME280;16028;42.642;23.310;2023-03-14T02:58:04;94085.28;;;2.22;74.49
28911;BME280;16028;42.642;23.310;2023-03-14T03:00:31;94088.69;;;2.22;74.68
28911;BME280;16028;42.642;23.310;2023-03-14T03:02:59;94085.09;;;2.25;73.96
28911;BME280;16028;42.642;23.310;2023-03-14T03:05:26;94081.44;;;2.29;74.59
28911;BME280;16028;42.642;23.310;2023-03-14T03:07:53;94087.66;;;2.25;74.20
28911;BME280;16028;42.642;23.310;2023-03-14T03:10:19;94090.88;;;2.28;73.12
28911;BME280;16028;42.642;23.310;2023-03-14T03:12:46;94091.88;;;2.26;74.05
28911;BME280;16028;42.642;23.310;2023-03-14T03:15:12;94079.97;;;2.25;74.51
28911;BME280;16028;42.642;23.310;2023-03-14T03:17:39;94077.31;;;2.26;74.13
28911;BME280;16028;42.642;23.310;2023-03-14T03:20:08;94077.31;;;2.26;74.68
28911;BME280;16028;42.642;23.310;2023-03-14T03:22:34;94074.41;;;2.18;75.37
28911;BME280;16028;42.642;23.310;2023-03-14T03:25:01;94070.38;;;2.14;75.05
28911;BME280;16028;42.642;23.310;2023-03-14T03:27:29;94079.84;;;2.13;74.44
28911;BME280;16028;42.642;23.310;2023-03-14T03:29:55;94073.75;;;2.14;74.69
28911;BME280;16028;42.642;23.310;2023-03-14T03:32:22;94080.28;;;2.20;73.80
28911;BME280;16028;42.642;23.310;2023-03-14T03:34:48;94074.94;;;2.23;74.22
28911;BME280;16028;42.642;23.310;2023-03-14T03:37:16;94073.94;;;2.26;73.72
28911;BME280;16028;42.642;23.310;2023-03-14T03:39:43;94070.41;;;2.27;74.75
28911;BME280;16028;42.642;23.310;2023-03-14T03:42:09;94072.06;;;2.28;74.71
28911;BME280;16028;42.642;23.310;2023-03-14T03:44:36;94075.56;;;2.27;74.37
28911;BME280;16028;42.642;23.310;2023-03-14T03:47:03;94077.22;;;2.28;74.18
28911;BME280;16028;42.642;23.310;2023-03-14T03:49:29;94078.88;;;2.29;74.75
28911;BME280;16028;42.642;23.310;2023-03-14T03:51:56;94079.69;;;2.29;73.97
28911;BME280;16028;42.642;23.310;2023-03-14T03:54:24;94088.31;;;2.28;75.06
28911;BME280;16028;42.642;23.310;2023-03-14T03:56:50;94091.44;;;2.19;75.69
28911;BME280;16028;42.642;23.310;2023-03-14T03:59:17;94089.16;;;2.14;75.76
28911;BME280;16028;42.642;23.310;2023-03-14T04:01:44;94093.38;;;2.16;76.09
28911;BME280;16028;42.642;23.310;2023-03-14T04:04:11;94084.59;;;2.20;75.54
28911;BME280;16028;42.642;23.310;2023-03-14T04:06:37;94086.84;;;2.24;75.63
28911;BME280;16028;42.642;23.310;2023-03-14T04:09:04;94084.19;;;2.26;75.16
28911;BME280;16028;42.642;23.310;2023-03-14T04:11:32;94083.25;;;2.27;74.99
28911;BME280;16028;42.642;23.310;2023-03-14T04:13:58;94076.31;;;2.29;74.98
28911;BME280;16028;42.642;23.310;2023-03-14T04:16:25;94080.69;;;2.27;73.98
28911;BME280;16028;42.642;23.310;2023-03-14T04:18:52;94072.66;;;2.19;75.04
28911;BME280;16028;42.642;23.310;2023-03-14T04:21:18;94071.84;;;2.18;75.20
28911;BME280;16028;42.642;23.310;2023-03-14T04:23:45;94071.50;;;2.10;75.61
28911;BME280;16028;42.642;23.310;2023-03-14T04:26:12;94064.28;;;2.02;76.10
28911;BME280;16028;42.642;23.310;2023-03-14T04:28:40;94064.09;;;2.05;75.63
28911;BME280;16028;42.642;23.310;2023-03-14T04:31:06;94057.84;;;2.09;75.31
28911;BME280;16028;42.642;23.310;2023-03-14T04:33:33;94051.91;;;2.09;75.34
28911;BME280;16028;42.642;23.310;2023-03-14T04:36:01;94051.91;;;2.09;75.36
28911;BME280;16028;42.642;23.310;2023-03-14T04:38:27;94047.59;;;2.09;75.62
28911;BME280;16028;42.642;23.310;2023-03-14T04:40:54;94045.09;;;2.08;75.34
28911;BME280;16028;42.642;23.310;2023-03-14T04:43:20;94046.06;;;2.07;75.56
28911;BME280;16028;42.642;23.310;2023-03-14T04:45:48;94047.78;;;2.06;76.16
28911;BME280;16028;42.642;23.310;2023-03-14T04:48:15;94045.41;;;2.03;75.86
28911;BME280;16028;42.642;23.310;2023-03-14T04:50:42;94042.03;;;2.03;75.44
28911;BME280;16028;42.642;23.310;2023-03-14T04:53:08;94039.34;;;2.04;75.20
28911;BME280;16028;42.642;23.310;2023-03-14T04:55:35;94032.28;;;2.08;75.48
28911;BME280;16028;42.642;23.310;2023-03-14T04:58:01;94030.47;;;2.10;75.33
28911;BME280;16028;42.642;23.310;2023-03-14T05:00:27;94035.59;;;2.10;75.33
28911;BME280;16028;42.642;23.310;2023-03-14T05:02:55;94028.81;;;2.09;75.78
28911;BME280;16028;42.642;23.310;2023-03-14T05:05:22;94027.97;;;2.08;75.21
28911;BME280;16028;42.642;23.310;2023-03-14T05:07:48;94031.38;;;2.09;75.13
28911;BME280;16028;42.642;23.310;2023-03-14T05:10:15;94028.56;;;1.99;76.11
28911;BME280;16028;42.642;23.310;2023-03-14T05:12:42;94027.84;;;1.97;76.40
28911;BME280;16028;42.642;23.310;2023-03-14T05:15:09;94031.97;;;2.00;76.91
28911;BME280;16028;42.642;23.310;2023-03-14T05:17:35;94037.28;;;1.97;77.21
28911;BME280;16028;42.642;23.310;2023-03-14T05:20:04;94029.47;;;1.98;77.10
28911;BME280;16028;42.642;23.310;2023-03-14T05:22:33;94034.03;;;2.07;77.22
28911;BME280;16028;42.642;23.310;2023-03-14T05:25:03;94035.22;;;2.16;76.86
28911;BME280;16028;42.642;23.310;2023-03-14T05:27:30;94024.63;;;2.21;76.39
28911;BME280;16028;42.642;23.310;2023-03-14T05:29:56;94028.47;;;2.28;76.42
28911;BME280;16028;42.642;23.310;2023-03-14T05:32:23;94017.16;;;2.30;77.34
28911;BME280;16028;42.642;23.310;2023-03-14T05:34:49;94020.38;;;2.34;77.53
28911;BME280;16028;42.642;23.310;2023-03-14T05:37:17;94018.34;;;2.39;77.32
28911;BME280;16028;42.642;23.310;2023-03-14T05:39:44;94013.63;;;2.45;77.39
28911;BME280;16028;42.642;23.310;2023-03-14T05:42:10;94018.25;;;2.53;77.66
28911;BME280;16028;42.642;23.310;2023-03-14T05:44:37;94022.06;;;2.60;76.56
28911;BME280;16028;42.642;23.310;2023-03-14T05:47:03;94023.81;;;2.72;76.74
28911;BME280;16028;42.642;23.310;2023-03-14T05:49:30;94017.59;;;2.89;74.32
28911;BME280;16028;42.642;23.310;2023-03-14T05:51:56;94016.34;;;2.94;73.41
28911;BME280;16028;42.642;23.310;2023-03-14T05:54:24;94025.28;;;3.01;72.91
28911;BME280;16028;42.642;23.310;2023-03-14T05:56:51;94021.91;;;3.13;73.66
28911;BME280;16028;42.642;23.310;2023-03-14T05:59:17;94021.06;;;3.26;70.96
28911;BME280;16028;42.642;23.310;2023-03-14T06:01:44;94029.28;;;3.43;68.25
28911;BME280;16028;42.642;23.310;2023-03-14T06:04:10;94023.72;;;3.49;66.88
28911;BME280;16028;42.642;23.310;2023-03-14T06:06:37;94021.16;;;3.37;68.64
28911;BME280;16028;42.642;23.310;2023-03-14T06:09:03;94027.03;;;3.39;67.98
28911;BME280;16028;42.642;23.310;2023-03-14T06:11:31;94026.72;;;3.43;68.02
28911;BME280;16028;42.642;23.310;2023-03-14T06:13:58;94028.88;;;3.37;67.52
28911;BME280;16028;42.642;23.310;2023-03-14T06:16:24;94020.03;;;3.41;67.36
28911;BME280;16028;42.642;23.310;2023-03-14T06:18:51;94014.50;;;3.34;67.87
28911;BME280;16028;42.642;23.310;2023-03-14T06:21:17;94024.78;;;3.34;67.61
28911;BME280;16028;42.642;23.310;2023-03-14T06:23:44;94025.19;;;3.41;67.53
28911;BME280;16028;42.642;23.310;2023-03-14T06:26:11;94027.13;;;3.50;65.61
28911;BME280;16028;42.642;23.310;2023-03-14T06:28:39;94022.28;;;3.45;65.67
28911;BME280;16028;42.642;23.310;2023-03-14T06:31:05;94030.94;;;3.44;65.71
28911;BME280;16028;42.642;23.310;2023-03-14T06:33:32;94034.53;;;3.42;66.03
28911;BME280;16028;42.642;23.310;2023-03-14T06:35:58;94036.06;;;3.57;65.08
28911;BME280;16028;42.642;23.310;2023-03-14T06:38:25;94040.47;;;3.55;65.27
28911;BME280;16028;42.642;23.310;2023-03-14T06:40:52;94029.69;;;3.50;65.83
28911;BME280;16028;42.642;23.310;2023-03-14T06:43:18;94025.78;;;3.57;65.47
28911;BME280;16028;42.642;23.310;2023-03-14T06:45:46;94023.69;;;3.62;66.27
28911;BME280;16028;42.642;23.310;2023-03-14T06:48:12;94013.19;;;3.65;66.67
28911;BME280;16028;42.642;23.310;2023-03-14T06:50:39;94011.72;;;3.73;67.38
28911;BME280;16028;42.642;23.310;2023-03-14T06:53:05;94007.53;;;3.96;65.74
28911;BME280;16028;42.642;23.310;2023-03-14T06:55:32;93997.84;;;4.00;66.69
28911;BME280;16028;42.642;23.310;2023-03-14T06:57:58;93997.81;;;4.12;66.27
28911;BME280;16028;42.642;23.310;2023-03-14T07:00:25;93988.88;;;4.29;66.45
28911;BME280;16028;42.642;23.310;2023-03-14T07:02:53;93985.63;;;4.38;67.35
28911;BME280;16028;42.642;23.310;2023-03-14T07:05:20;93986.59;;;4.48;65.34
28911;BME280;16028;42.642;23.310;2023-03-14T07:07:46;93987.34;;;4.61;63.54
28911;BME280;16028;42.642;23.310;2023-03-14T07:10:13;93975.22;;;4.74;62.43
28911;BME280;16028;42.642;23.310;2023-03-14T07:12:39;93976.63;;;4.78;62.76
28911;BME280;16028;42.642;23.310;2023-03-14T07:15:06;93976.41;;;4.93;65.47
28911;BME280;16028;42.642;23.310;2023-03-14T07:17:33;93976.09;;;4.97;63.44
28911;BME280;16028;42.642;23.310;2023-03-14T07:20:01;93977.69;;;4.98;64.81
28911;BME280;16028;42.642;23.310;2023-03-14T07:22:30;93986.28;;;5.10;62.11
28911;BME280;16028;42.642;23.310;2023-03-14T07:24:57;93983.47;;;5.24;60.67
28911;BME280;16028;42.642;23.310;2023-03-14T07:27:23;93980.19;;;5.22;61.77
28911;BME280;16028;42.642;23.310;2023-03-14T07:29:50;93984.19;;;5.37;59.06
28911;BME280;16028;42.642;23.310;2023-03-14T07:32:16;93975.63;;;5.37;60.41
28911;BME280;16028;42.642;23.310;2023-03-14T07:34:43;93973.84;;;5.37;61.33
28911;BME280;16028;42.642;23.310;2023-03-14T07:37:11;93972.00;;;5.39;60.39
28911;BME280;16028;42.642;23.310;2023-03-14T07:39:37;93963.19;;;5.53;59.25
28911;BME280;16028;42.642;23.310;2023-03-14T07:42:04;93959.34;;;5.58;58.34
28911;BME280;16028;42.642;23.310;2023-03-14T07:44:31;93954.38;;;5.55;62.31
28911;BME280;16028;42.642;23.310;2023-03-14T07:46:57;93957.69;;;5.57;61.66
28911;BME280;16028;42.642;23.310;2023-03-14T07:49:24;93952.88;;;5.64;59.63
28911;BME280;16028;42.642;23.310;2023-03-14T07:51:53;93953.66;;;5.75;58.30
28911;BME280;16028;42.642;23.310;2023-03-14T07:54:21;93951.09;;;5.87;56.46
28911;BME280;16028;42.642;23.310;2023-03-14T07:56:48;93955.75;;;5.81;59.39
28911;BME280;16028;42.642;23.310;2023-03-14T07:59:15;93950.31;;;6.07;55.58
28911;BME280;16028;42.642;23.310;2023-03-14T08:01:41;93952.72;;;6.19;55.81
28911;BME280;16028;42.642;23.310;2023-03-14T08:04:08;93951.31;;;6.26;54.39
28911;BME280;16028;42.642;23.310;2023-03-14T08:06:34;93942.88;;;6.24;55.53
28911;BME280;16028;42.642;23.310;2023-03-14T08:09:01;93953.13;;;6.15;55.65
28911;BME280;16028;42.642;23.310;2023-03-14T08:11:29;93946.97;;;6.27;53.91
28911;BME280;16028;42.642;23.310;2023-03-14T08:13:56;93944.47;;;6.36;53.70
28911;BME280;16028;42.642;23.310;2023-03-14T08:16:23;93944.50;;;6.25;55.94
28911;BME280;16028;42.642;23.310;2023-03-14T08:18:49;93951.31;;;6.26;56.36
28911;BME280;16028;42.642;23.310;2023-03-14T08:21:16;93941.28;;;6.44;61.56
28911;BME280;16028;42.642;23.310;2023-03-14T08:23:42;93946.50;;;6.54;58.85
28911;BME280;16028;42.642;23.310;2023-03-14T08:26:12;93944.91;;;6.83;53.19
28911;BME280;16028;42.642;23.310;2023-03-14T08:28:39;93936.94;;;6.86;52.39
28911;BME280;16028;42.642;23.310;2023-03-14T08:31:06;93944.44;;;6.89;52.66
28911;BME280;16028;42.642;23.310;2023-03-14T08:33:32;93946.44;;;6.85;52.21
28911;BME280;16028;42.642;23.310;2023-03-14T08:35:59;93938.13;;;6.82;53.60
28911;BME280;16028;42.642;23.310;2023-03-14T08:38:26;93939.94;;;6.91;53.03
28911;BME280;16028;42.642;23.310;2023-03-14T08:40:56;93937.09;;;7.24;51.79
28911;BME280;16028;42.642;23.310;2023-03-14T08:43:23;93938.78;;;7.35;48.64
28911;BME280;16028;42.642;23.310;2023-03-14T08:45:51;93925.66;;;7.17;51.33
28911;BME280;16028;42.642;23.310;2023-03-14T08:48:18;93915.09;;;7.30;49.86
28911;BME280;16028;42.642;23.310;2023-03-14T08:50:44;93919.59;;;7.37;49.16
28911;BME280;16028;42.642;23.310;2023-03-14T08:53:11;93912.94;;;7.44;48.25
28911;BME280;16028;42.642;23.310;2023-03-14T08:55:37;93910.88;;;7.38;49.72
28911;BME280;16028;42.642;23.310;2023-03-14T08:58:04;93905.41;;;7.32;50.01
28911;BME280;16028;42.642;23.310;2023-03-14T09:00:30;93902.47;;;7.46;49.15
28911;BME280;16028;42.642;23.310;2023-03-14T09:02:58;93894.59;;;7.57;48.14
28911;BME280;16028;42.642;23.310;2023-03-14T09:05:25;93889.47;;;7.76;47.27
28911;BME280;16028;42.642;23.310;2023-03-14T09:07:51;93891.66;;;7.81;46.99
28911;BME280;16028;42.642;23.310;2023-03-14T09:10:18;93882.25;;;7.80;55.73
28911;BME280;16028;42.642;23.310;2023-03-14T09:12:45;93877.06;;;7.80;52.20
28911;BME280;16028;42.642;23.310;2023-03-14T09:15:11;93875.72;;;7.95;52.00
28911;BME280;16028;42.642;23.310;2023-03-14T09:17:38;93859.34;;;8.14;51.06
28911;BME280;16028;42.642;23.310;2023-03-14T09:20:06;93856.75;;;8.14;47.66
28911;BME280;16028;42.642;23.310;2023-03-14T09:22:33;93853.81;;;8.28;52.88
28911;BME280;16028;42.642;23.310;2023-03-14T09:25:00;93849.41;;;8.47;46.72
28911;BME280;16028;42.642;23.310;2023-03-14T09:27:27;93843.56;;;8.45;51.48
28911;BME280;16028;42.642;23.310;2023-03-14T09:29:53;93834.97;;;8.45;49.38
28911;BME280;16028;42.642;23.310;2023-03-14T09:32:20;93843.00;;;8.61;48.31
28911;BME280;16028;42.642;23.310;2023-03-14T09:34:46;93836.69;;;8.73;47.79
28911;BME280;16028;42.642;23.310;2023-03-14T09:37:15;93827.88;;;8.84;49.57
28911;BME280;16028;42.642;23.310;2023-03-14T09:39:42;93819.03;;;8.86;49.33
28911;BME280;16028;42.642;23.310;2023-03-14T09:42:12;93818.19;;;9.23;46.10
28911;BME280;16028;42.642;23.310;2023-03-14T09:44:41;93816.59;;;9.12;46.39
28911;BME280;16028;42.642;23.310;2023-03-14T09:47:10;93814.09;;;9.20;45.89
28911;BME280;16028;42.642;23.310;2023-03-14T09:49:39;93802.72;;;9.48;43.64
28911;BME280;16028;42.642;23.310;2023-03-14T09:52:06;93796.28;;;9.52;43.48
28911;BME280;16028;42.642;23.310;2023-03-14T09:54:40;93798.88;;;9.52;43.70
28911;BME280;16028;42.642;23.310;2023-03-14T09:57:10;93790.81;;;9.55;45.43
28911;BME280;16028;42.642;23.310;2023-03-14T09:59:38;93793.34;;;9.47;45.42
28911;BME280;16028;42.642;23.310;2023-03-14T10:02:11;93783.44;;;9.51;45.90
28911;BME280;16028;42.642;23.310;2023-03-14T10:04:40;93776.28;;;9.63;46.25
28911;BME280;16028;42.642;23.310;2023-03-14T10:07:10;93776.13;;;9.82;46.17
28911;BME280;16028;42.642;23.310;2023-03-14T10:09:42;93767.97;;;9.94;46.05
28911;BME280;16028;42.642;23.310;2023-03-14T10:12:09;93768.78;;;9.95;46.17
28911;BME280;16028;42.642;23.310;2023-03-14T10:14:37;93769.44;;;9.97;46.69
28911;BME280;16028;42.642;23.310;2023-03-14T10:17:07;93766.94;;;10.05;45.18
28911;BME280;16028;42.642;23.310;2023-03-14T10:19:35;93754.66;;;10.15;46.99
28911;BME280;16028;42.642;23.310;2023-03-14T10:22:03;93747.75;;;10.24;45.91
28911;BME280;16028;42.642;23.310;2023-03-14T10:24:30;93738.38;;;10.31;45.99
28911;BME280;16028;42.642;23.310;2023-03-14T10:26:59;93732.75;;;10.43;45.24
28911;BME280;16028;42.642;23.310;2023-03-14T10:29:28;93717.88;;;10.53;45.82
28911;BME280;16028;42.642;23.310;2023-03-14T10:31:56;93720.25;;;10.73;46.02
28911;BME280;16028;42.642;23.310;2023-03-14T10:34:24;93715.41;;;10.78;46.26
28911;BME280;16028;42.642;23.310;2023-03-14T10:36:52;93695.88;;;10.82;46.16
28911;BME280;16028;42.642;23.310;2023-03-14T10:39:24;93698.09;;;11.02;43.27
28911;BME280;16028;42.642;23.310;2023-03-14T10:41:52;93686.91;;;11.18;42.74
28911;BME280;16028;42.642;23.310;2023-03-14T10:44:24;93684.31;;;11.18;44.42
28911;BME280;16028;42.642;23.310;2023-03-14T10:46:55;93684.69;;;11.47;42.54
28911;BME280;16028;42.642;23.310;2023-03-14T10:49:25;93675.25;;;11.62;41.56
28911;BME280;16028;42.642;23.310;2023-03-14T10:51:53;93669.22;;;11.46;43.27
28911;BME280;16028;42.642;23.310;2023-03-14T10:54:20;93658.16;;;11.44;44.26
28911;BME280;16028;42.642;23.310;2023-03-14T10:56:55;93652.47;;;11.48;44.10
28911;BME280;16028;42.642;23.310;2023-03-14T10:59:22;93649.88;;;11.64;42.01
28911;BME280;16028;42.642;23.310;2023-03-14T11:01:51;93641.94;;;11.74;45.55
28911;BME280;16028;42.642;23.310;2023-03-14T11:04:25;93645.63;;;11.88;41.50
28911;BME280;16028;42.642;23.310;2023-03-14T11:06:54;93633.59;;;11.95;42.75
28911;BME280;16028;42.642;23.310;2023-03-14T11:09:24;93624.47;;;11.99;44.78
28911;BME280;16028;42.642;23.310;2023-03-14T11:11:54;93629.69;;;11.99;44.90
28911;BME280;16028;42.642;23.310;2023-03-14T11:14:26;93610.13;;;12.03;42.51
28911;BME280;16028;42.642;23.310;2023-03-14T11:16:59;93609.09;;;12.20;41.78
28911;BME280;16028;42.642;23.310;2023-03-14T11:19:30;93604.50;;;12.30;45.16
28911;BME280;16028;42.642;23.310;2023-03-14T11:21:59;93590.94;;;12.43;42.60
28911;BME280;16028;42.642;23.310;2023-03-14T11:27:15;93578.44;;;12.61;42.09
28911;BME280;16028;42.642;23.310;2023-03-14T11:29:44;93576.38;;;12.56;44.08
28911;BME280;16028;42.642;23.310;2023-03-14T11:32:17;93572.69;;;12.73;42.53
28911;BME280;16028;42.642;23.310;2023-03-14T11:34:48;93558.56;;;12.91;45.61
28911;BME280;16028;42.642;23.310;2023-03-14T11:37:17;93561.84;;;13.15;42.01
28911;BME280;16028;42.642;23.310;2023-03-14T11:39:51;93554.31;;;13.20;41.17
28911;BME280;16028;42.642;23.310;2023-03-14T11:42:19;93545.59;;;13.28;40.70
28911;BME280;16028;42.642;23.310;2023-03-14T11:44:47;93552.25;;;13.31;41.49
28911;BME280;16028;42.642;23.310;2023-03-14T11:47:15;93538.69;;;13.35;44.07
28911;BME280;16028;42.642;23.310;2023-03-14T11:49:47;93528.00;;;13.45;44.27
28911;BME280;16028;42.642;23.310;2023-03-14T11:52:16;93527.84;;;13.61;42.02
28911;BME280;16028;42.642;23.310;2023-03-14T11:54:48;93521.84;;;13.75;44.16
28911;BME280;16028;42.642;23.310;2023-03-14T11:57:17;93514.25;;;13.95;43.52
28911;BME280;16028;42.642;23.310;2023-03-14T11:59:46;93512.41;;;14.03;38.60
28911;BME280;16028;42.642;23.310;2023-03-14T12:02:15;93516.25;;;14.07;41.61
28911;BME280;16028;42.642;23.310;2023-03-14T12:04:49;93509.88;;;14.10;40.85
28911;BME280;16028;42.642;23.310;2023-03-14T12:07:18;93501.47;;;14.14;41.93
28911;BME280;16028;42.642;23.310;2023-03-14T12:09:46;93491.28;;;14.19;38.98
28911;BME280;16028;42.642;23.310;2023-03-14T12:12:14;93493.78;;;14.27;38.20
28911;BME280;16028;42.642;23.310;2023-03-14T12:14:46;93479.88;;;14.27;37.09
28911;BME280;16028;42.642;23.310;2023-03-14T12:17:18;93466.09;;;14.18;37.45
28911;BME280;16028;42.642;23.310;2023-03-14T12:19:47;93464.56;;;14.24;37.40
28911;BME280;16028;42.642;23.310;2023-03-14T12:22:24;93459.91;;;14.19;38.91
28911;BME280;16028;42.642;23.310;2023-03-14T12:24:53;93458.59;;;14.30;37.12
28911;BME280;16028;42.642;23.310;2023-03-14T12:30:14;93453.66;;;14.20;41.89
28911;BME280;16028;42.642;23.310;2023-03-14T12:32:41;93449.06;;;14.58;37.49
28911;BME280;16028;42.642;23.310;2023-03-14T12:37:51;93439.44;;;14.80;40.39
28911;BME280;16028;42.642;23.310;2023-03-14T12:40:20;93429.41;;;14.83;38.91
28911;BME280;16028;42.642;23.310;2023-03-14T12:42:54;93435.81;;;15.02;34.72
28911;BME280;16028;42.642;23.310;2023-03-14T12:45:24;93433.22;;;15.02;34.43
28911;BME280;16028;42.642;23.310;2023-03-14T12:47:55;93427.53;;;14.77;35.89
28911;BME280;16028;42.642;23.310;2023-03-14T12:50:26;93424.97;;;14.84;35.83
28911;BME280;16028;42.642;23.310;2023-03-14T12:53:06;93419.63;;;14.92;40.12
28911;BME280;16028;42.642;23.310;2023-03-14T12:55:38;93412.63;;;14.99;39.91
28911;BME280;16028;42.642;23.310;2023-03-14T12:58:07;93401.56;;;15.25;39.24
28911;BME280;16028;42.642;23.310;2023-03-14T13:00:38;93394.69;;;15.52;35.83
28911;BME280;16028;42.642;23.310;2023-03-14T13:03:13;93399.84;;;15.66;40.40
28911;BME280;16028;42.642;23.310;2023-03-14T13:05:51;93389.47;;;15.93;39.68
28911;BME280;16028;42.642;23.310;2023-03-14T13:08:31;93387.34;;;16.16;39.87